createdAt,value
2019-01-24T00:00:45.558Z,82.63
2019-01-24T00:03:14.691Z,80.57
2019-01-24T00:05:44.172Z,82.33
2019-01-24T00:08:13.336Z,76.90
2019-01-24T00:10:42.549Z,78.03
2019-01-24T00:13:11.747Z,80.03
2019-01-24T00:15:40.891Z,83.13
2019-01-24T00:18:10.400Z,84.00
2019-01-24T00:20:39.616Z,83.03
2019-01-24T00:23:08.772Z,79.03
2019-01-24T00:25:37.928Z,85.70
2019-01-24T00:28:07.096Z,79.80
2019-01-24T00:30:36.548Z,87.80
2019-01-24T00:33:05.904Z,83.67
2019-01-24T00:35:35.062Z,75.43
2019-01-24T00:38:04.236Z,86.47
2019-01-24T00:40:33.364Z,82.27
2019-01-24T00:43:02.602Z,85.80
2019-01-24T00:45:31.743Z,87.33
2019-01-24T00:48:00.901Z,84.03
2019-01-24T00:50:30.066Z,80.97
2019-01-24T00:52:59.610Z,79.33
2019-01-24T00:55:29.115Z,85.17
2019-01-24T00:57:59.026Z,88.70
2019-01-24T01:00:29.100Z,82.47
2019-01-24T01:02:58.702Z,81.77
2019-01-24T01:05:28.255Z,82.70
2019-01-24T01:07:57.415Z,87.10
2019-01-24T01:10:26.609Z,84.83
2019-01-24T01:12:56.193Z,81.67
2019-01-24T01:15:25.357Z,87.80
2019-01-24T01:17:54.863Z,88.87
2019-01-24T01:20:24.675Z,82.47
2019-01-24T01:22:54.526Z,82.80
2019-01-24T01:25:23.704Z,92.50
2019-01-24T01:27:52.880Z,90.17
2019-01-24T01:30:23.703Z,85.03
2019-01-24T01:32:53.674Z,87.20
2019-01-24T01:35:22.941Z,83.30
2019-01-24T01:37:52.194Z,85.03
2019-01-24T01:40:21.796Z,88.60
2019-01-24T01:42:51.336Z,86.43
2019-01-24T01:45:23.820Z,85.17
2019-01-24T01:47:53.008Z,88.43
2019-01-24T01:50:23.676Z,82.30
2019-01-24T01:52:53.005Z,82.83
2019-01-24T01:55:22.511Z,84.23
2019-01-24T01:57:51.666Z,81.50
2019-01-24T02:00:23.086Z,78.10
2019-01-24T02:02:52.256Z,83.63
2019-01-24T02:05:21.424Z,80.43
2019-01-24T02:07:50.909Z,80.30
2019-01-24T02:10:22.260Z,81.03
2019-01-24T02:12:52.187Z,85.77
2019-01-24T02:15:21.979Z,87.33
2019-01-24T02:17:51.528Z,83.37
2019-01-24T02:20:22.785Z,97.80
2019-01-24T02:22:53.057Z,93.53
2019-01-24T02:25:22.902Z,96.23
2019-01-24T02:27:52.255Z,93.87
2019-01-24T02:30:24.140Z,97.63
2019-01-24T02:32:53.411Z,100.20
2019-01-24T02:35:22.957Z,104.53
2019-01-24T02:37:52.221Z,93.53
2019-01-24T02:40:21.763Z,97.60
2019-01-24T02:42:51.033Z,101.27
2019-01-24T02:45:21.897Z,101.40
2019-01-24T02:47:51.699Z,100.47
2019-01-24T02:50:21.912Z,101.13
2019-01-24T02:52:51.100Z,96.17
2019-01-24T02:55:20.270Z,105.23
2019-01-24T02:57:49.536Z,108.10
2019-01-24T03:00:20.619Z,105.03
2019-01-24T03:02:50.180Z,107.73
2019-01-24T03:05:21.184Z,106.70
2019-01-24T03:07:50.777Z,108.13
2019-01-24T03:10:20.338Z,115.20
2019-01-24T03:12:49.655Z,107.77
2019-01-24T03:15:20.650Z,108.43
2019-01-24T03:17:50.532Z,109.10
2019-01-24T03:20:20.140Z,108.33
2019-01-24T03:22:49.438Z,103.57
2019-01-24T03:25:18.951Z,102.30
2019-01-24T03:27:48.439Z,101.70
2019-01-24T03:30:19.731Z,97.13
2019-01-24T03:32:48.970Z,107.40
2019-01-24T03:35:24.124Z,102.37
2019-01-24T03:37:53.462Z,100.90
2019-01-24T03:40:22.689Z,94.63
2019-01-24T03:42:52.328Z,100.23
2019-01-24T03:45:21.481Z,104.40
2019-01-24T03:47:51.380Z,100.40
2019-01-24T03:50:21.825Z,105.43
2019-01-24T03:52:51.710Z,104.10
2019-01-24T03:55:22.521Z,103.93
2019-01-24T03:57:52.159Z,105.90
2019-01-24T04:00:23.152Z,101.00
2019-01-24T04:02:52.730Z,95.70
2019-01-24T04:05:25.387Z,102.57
2019-01-24T04:07:57.916Z,97.73
2019-01-24T04:10:27.473Z,105.87
2019-01-24T04:12:56.639Z,112.10
2019-01-24T04:15:26.866Z,108.20
2019-01-24T04:17:56.192Z,112.33
2019-01-24T04:20:25.836Z,140.87
2019-01-24T04:22:55.464Z,122.70
2019-01-24T04:25:24.635Z,108.77
2019-01-24T04:27:54.254Z,111.30
2019-01-24T04:30:24.551Z,114.87
2019-01-24T04:32:53.797Z,111.20
2019-01-24T04:35:23.602Z,113.33
2019-01-24T04:37:53.574Z,106.53
2019-01-24T04:40:22.919Z,112.03
2019-01-24T04:42:52.206Z,108.57
2019-01-24T04:45:21.552Z,107.30
2019-01-24T04:47:50.851Z,113.23
2019-01-24T04:50:20.418Z,125.57
2019-01-24T04:52:49.561Z,140.87
2019-01-24T04:55:20.326Z,138.13
2019-01-24T04:57:50.194Z,147.73
2019-01-24T05:00:21.968Z,139.50
2019-01-24T05:02:51.699Z,127.57
2019-01-24T05:05:27.720Z,124.93
2019-01-24T05:07:51.763Z,123.47
2019-01-24T05:10:20.949Z,132.50
2019-01-24T05:12:50.089Z,135.73
2019-01-24T05:15:20.760Z,130.70
2019-01-24T05:17:50.301Z,120.50
2019-01-24T05:20:19.468Z,128.27
2019-01-24T05:22:48.707Z,117.70
2019-01-24T05:25:18.224Z,114.87
2019-01-24T05:27:48.144Z,117.93
2019-01-24T05:30:25.823Z,122.00
2019-01-24T05:32:55.538Z,108.30
2019-01-24T05:35:24.799Z,121.67
2019-01-24T05:37:54.307Z,120.03
2019-01-24T05:40:23.983Z,112.83
2019-01-24T05:42:53.504Z,120.80
2019-01-24T05:45:22.884Z,109.67
2019-01-24T05:47:52.043Z,117.00
2019-01-24T05:50:21.652Z,131.03
2019-01-24T05:52:50.892Z,114.17
2019-01-24T05:55:20.135Z,117.53
2019-01-24T05:57:49.635Z,112.80
2019-01-24T06:00:33.504Z,112.90
2019-01-24T06:03:03.038Z,109.97
2019-01-24T06:05:32.222Z,118.93
2019-01-24T06:08:01.809Z,116.27
2019-01-24T06:10:31.092Z,115.10
2019-01-24T06:13:00.267Z,127.43
2019-01-24T06:15:29.791Z,125.63
2019-01-24T06:17:59.114Z,116.13
2019-01-24T06:20:28.566Z,108.73
2019-01-24T06:22:57.743Z,102.20
2019-01-24T06:25:26.890Z,101.10
2019-01-24T06:27:56.037Z,110.30
2019-01-24T06:30:25.757Z,107.77
2019-01-24T06:32:55.269Z,104.90
2019-01-24T06:35:24.941Z,105.43
2019-01-24T06:37:54.391Z,103.67
2019-01-24T06:40:23.609Z,106.60
2019-01-24T06:42:52.816Z,95.13
2019-01-24T06:45:23.002Z,98.43
2019-01-24T06:47:52.265Z,100.67
2019-01-24T06:50:21.422Z,101.07
2019-01-24T06:52:50.612Z,110.47
2019-01-24T06:55:22.700Z,93.87
2019-01-24T06:57:51.950Z,93.83
2019-01-24T07:00:21.720Z,98.53
2019-01-24T07:02:51.022Z,98.43
2019-01-24T07:05:21.720Z,102.50
2019-01-24T07:07:51.327Z,110.27
2019-01-24T07:10:21.317Z,100.37
2019-01-24T07:12:50.564Z,99.10
2019-01-24T07:15:21.283Z,104.03
2019-01-24T07:17:50.450Z,126.80
2019-01-24T07:20:20.453Z,111.67
2019-01-24T07:22:49.753Z,121.17
2019-01-24T07:25:20.751Z,124.37
2019-01-24T07:27:50.607Z,129.13
2019-01-24T07:30:19.955Z,128.70
2019-01-24T07:32:49.114Z,133.90
2019-01-24T07:35:18.412Z,119.73
2019-01-24T07:37:47.821Z,119.73
2019-01-24T07:40:17.771Z,114.50
2019-01-24T07:42:47.516Z,124.50
2019-01-24T07:45:19.259Z,129.07
2019-01-24T07:47:48.513Z,116.73
2019-01-24T07:50:18.148Z,131.40
2019-01-24T07:52:47.307Z,123.80
2019-01-24T07:55:16.536Z,122.77
2019-01-24T07:57:45.808Z,129.30
2019-01-24T08:00:17.987Z,119.67
2019-01-24T08:02:47.555Z,121.13
2019-01-24T08:05:17.380Z,113.47
2019-01-24T08:07:46.645Z,106.07
2019-01-24T08:10:17.021Z,111.90
2019-01-24T08:12:46.256Z,103.67
2019-01-24T08:15:16.746Z,104.13
2019-01-24T08:17:46.279Z,106.23
2019-01-24T08:20:17.494Z,105.63
2019-01-24T08:22:46.966Z,97.00
2019-01-24T08:25:16.361Z,99.80
2019-01-24T08:27:46.010Z,93.40
2019-01-24T08:30:26.145Z,97.73
2019-01-24T08:32:55.821Z,99.90
2019-01-24T08:35:25.090Z,96.53
2019-01-24T08:37:55.328Z,100.53
2019-01-24T08:40:25.020Z,102.57
2019-01-24T08:42:54.256Z,98.63
2019-01-24T08:45:23.737Z,108.73
2019-01-24T08:47:53.431Z,107.63
2019-01-24T08:50:24.026Z,107.40
2019-01-24T08:52:53.436Z,103.97
2019-01-24T08:55:31.700Z,119.67
2019-01-24T08:58:00.940Z,109.50
2019-01-24T09:00:30.383Z,113.07
2019-01-24T09:02:59.907Z,108.03
2019-01-24T09:05:29.711Z,112.17
2019-01-24T09:07:59.225Z,114.93
2019-01-24T09:10:31.240Z,114.07
2019-01-24T09:13:00.573Z,110.57
2019-01-24T09:15:29.914Z,107.60
2019-01-24T09:17:59.062Z,109.17
2019-01-24T09:20:28.301Z,107.90
2019-01-24T09:22:57.603Z,106.03
2019-01-24T09:25:26.777Z,113.93
2019-01-24T09:27:55.967Z,113.17
2019-01-24T09:30:26.595Z,110.70
2019-01-24T09:32:55.747Z,105.70
2019-01-24T09:35:24.911Z,116.70
2019-01-24T09:37:54.083Z,105.10
2019-01-24T09:40:23.750Z,103.83
2019-01-24T09:42:53.200Z,103.47
2019-01-24T09:45:27.281Z,102.63
2019-01-24T09:47:58.951Z,98.60
2019-01-24T09:50:28.269Z,106.90
2019-01-24T09:52:57.768Z,111.17
2019-01-24T09:55:27.366Z,96.43
2019-01-24T09:57:57.128Z,104.87
2019-01-24T10:00:44.856Z,101.10
2019-01-24T10:03:14.405Z,102.37
2019-01-24T10:05:43.668Z,102.60
2019-01-24T10:08:13.289Z,104.57
2019-01-24T10:10:42.488Z,112.90
2019-01-24T10:13:11.659Z,107.80
2019-01-24T10:15:40.910Z,102.50
2019-01-24T10:18:10.088Z,101.47
2019-01-24T10:20:39.282Z,103.10
2019-01-24T10:23:08.530Z,96.57
2019-01-24T10:25:39.280Z,96.87
2019-01-24T10:28:09.283Z,97.93
2019-01-24T10:30:42.950Z,94.60
2019-01-24T10:33:18.150Z,97.30
2019-01-24T10:35:47.362Z,99.10
2019-01-24T10:38:16.876Z,97.77
2019-01-24T10:40:46.136Z,90.70
2019-01-24T10:43:15.364Z,91.37
2019-01-24T10:45:44.887Z,85.37
2019-01-24T10:48:14.015Z,89.50
2019-01-24T10:50:43.774Z,90.67
2019-01-24T10:53:12.912Z,87.70
2019-01-24T10:55:42.069Z,84.50
2019-01-24T10:58:11.293Z,82.30
2019-01-24T11:00:42.460Z,75.50
2019-01-24T11:03:14.120Z,84.03
2019-01-24T11:05:43.554Z,80.53
2019-01-24T11:08:13.119Z,77.40
2019-01-24T11:10:42.393Z,69.63
2019-01-24T11:13:11.563Z,70.77
2019-01-24T11:15:40.740Z,70.00
2019-01-24T11:18:09.882Z,75.07
2019-01-24T11:20:39.380Z,70.07
2019-01-24T11:23:08.694Z,82.97
2019-01-24T11:25:37.830Z,80.87
2019-01-24T11:28:07.625Z,73.90
2019-01-24T11:30:37.065Z,75.63
2019-01-24T11:33:07.354Z,87.93
2019-01-24T11:35:37.886Z,75.60
2019-01-24T11:38:07.735Z,69.53
2019-01-24T11:40:37.226Z,66.77
2019-01-24T11:43:07.272Z,69.20
2019-01-24T11:45:38.982Z,64.97
2019-01-24T11:48:08.158Z,76.33
2019-01-24T11:50:37.313Z,76.70
2019-01-24T11:53:06.851Z,76.93
2019-01-24T11:55:36.010Z,86.57
2019-01-24T11:58:06.012Z,80.07
2019-01-24T12:00:40.360Z,86.50
2019-01-24T12:03:09.646Z,83.23
2019-01-24T12:05:38.798Z,83.87
2019-01-24T12:08:09.173Z,86.30
2019-01-24T12:10:38.345Z,82.77
2019-01-24T12:13:08.026Z,87.53
2019-01-24T12:15:37.184Z,86.53
2019-01-24T12:18:06.734Z,86.97
2019-01-24T12:20:36.026Z,92.73
2019-01-24T12:23:05.436Z,88.30
2019-01-24T12:25:34.660Z,97.17
2019-01-24T12:28:03.876Z,92.07
2019-01-24T12:30:34.547Z,99.07
2019-01-24T12:33:04.420Z,101.07
2019-01-24T12:35:33.676Z,101.80
2019-01-24T12:38:03.193Z,97.57
2019-01-24T12:40:32.692Z,106.63
2019-01-24T12:43:02.181Z,96.43
2019-01-24T12:45:33.392Z,108.80
2019-01-24T12:48:02.757Z,101.20
2019-01-24T12:50:31.938Z,102.67
2019-01-24T12:53:01.186Z,107.23
2019-01-24T12:55:30.381Z,100.47
2019-01-24T12:57:59.577Z,104.03
2019-01-24T13:00:31.335Z,100.17
2019-01-24T13:03:00.498Z,113.43
2019-01-24T13:05:29.996Z,111.70
2019-01-24T13:07:59.209Z,110.17
2019-01-24T13:10:29.116Z,101.17
2019-01-24T13:12:58.609Z,97.20
2019-01-24T13:15:29.788Z,108.70
2019-01-24T13:17:59.030Z,117.40
2019-01-24T13:20:28.209Z,108.60
2019-01-24T13:22:57.430Z,109.83
2019-01-24T13:25:29.264Z,111.87
2019-01-24T13:27:58.787Z,105.07
2019-01-24T13:30:30.359Z,109.40
2019-01-24T13:33:00.011Z,115.63
2019-01-24T13:35:29.558Z,122.13
2019-01-24T13:37:58.710Z,115.87
2019-01-24T13:40:29.847Z,110.23
2019-01-24T13:43:00.005Z,117.83
2019-01-24T13:45:31.551Z,122.37
2019-01-24T13:48:00.911Z,111.07
2019-01-24T13:50:30.366Z,107.27
2019-01-24T13:52:59.575Z,105.87
2019-01-24T13:55:29.157Z,97.93
2019-01-24T13:57:58.420Z,103.17
2019-01-24T14:00:38.561Z,101.10
2019-01-24T14:03:16.904Z,101.20
2019-01-24T14:05:46.102Z,112.60
2019-01-24T14:08:15.710Z,105.17
2019-01-24T14:10:44.848Z,108.07
2019-01-24T14:13:14.019Z,104.13
2019-01-24T14:15:43.258Z,108.53
2019-01-24T14:18:12.828Z,108.90
2019-01-24T14:20:42.129Z,92.40
2019-01-24T14:23:11.294Z,93.17
2019-01-24T14:25:40.800Z,99.80
2019-01-24T14:28:10.512Z,96.03
2019-01-24T14:30:39.743Z,100.53
2019-01-24T14:33:09.003Z,99.43
2019-01-24T14:35:38.538Z,100.60
2019-01-24T14:38:08.725Z,100.53
2019-01-24T14:40:37.895Z,101.77
2019-01-24T14:43:07.176Z,99.33
2019-01-24T14:45:36.375Z,113.07
2019-01-24T14:48:06.677Z,108.37
2019-01-24T14:50:35.889Z,101.83
2019-01-24T14:53:05.482Z,103.70
2019-01-24T14:55:34.638Z,95.23
2019-01-24T14:58:03.793Z,97.40
2019-01-24T15:00:42.209Z,97.57
2019-01-24T15:03:11.759Z,89.13
2019-01-24T15:05:41.751Z,87.87
2019-01-24T15:08:10.883Z,104.03
2019-01-24T15:10:40.031Z,99.37
2019-01-24T15:13:09.416Z,93.30
2019-01-24T15:15:38.577Z,96.57
2019-01-24T15:18:07.803Z,99.80
2019-01-24T15:20:37.262Z,102.67
2019-01-24T15:23:06.404Z,93.60
2019-01-24T15:25:35.648Z,92.53
2019-01-24T15:28:04.807Z,92.13
2019-01-24T15:30:34.071Z,92.37
2019-01-24T15:33:03.295Z,93.93
2019-01-24T15:35:32.767Z,88.40
2019-01-24T15:38:01.926Z,96.13
2019-01-24T15:40:31.906Z,86.93
2019-01-24T15:43:20.202Z,86.40
2019-01-24T15:45:49.386Z,90.03
2019-01-24T15:48:18.621Z,91.70
2019-01-24T15:50:47.800Z,85.30
2019-01-24T15:53:17.630Z,98.63
2019-01-24T15:55:46.850Z,96.30
2019-01-24T15:58:16.328Z,111.50
2019-01-24T16:00:45.834Z,101.93
2019-01-24T16:03:15.434Z,117.43
2019-01-24T16:05:44.677Z,106.70
2019-01-24T16:08:13.859Z,109.90
2019-01-24T16:10:43.044Z,110.53
2019-01-24T16:13:12.642Z,104.63
2019-01-24T16:15:41.879Z,112.97
2019-01-24T16:18:11.889Z,110.60
2019-01-24T16:20:41.058Z,111.27
2019-01-24T16:23:10.636Z,112.60
2019-01-24T16:25:40.201Z,114.13
2019-01-24T16:28:09.405Z,115.13
2019-01-24T16:30:38.779Z,115.23
2019-01-24T16:33:09.219Z,117.47
2019-01-24T16:35:39.703Z,115.97
2019-01-24T16:38:09.688Z,115.30
2019-01-24T16:40:39.019Z,121.43
2019-01-24T16:43:08.267Z,131.97
2019-01-24T16:45:37.441Z,121.30
2019-01-24T16:48:07.177Z,123.47
2019-01-24T16:50:36.314Z,125.80
2019-01-24T16:53:05.497Z,128.13
2019-01-24T16:55:34.709Z,119.73
2019-01-24T16:58:04.353Z,126.60
2019-01-24T17:00:43.069Z,132.40
2019-01-24T17:03:12.523Z,112.43
2019-01-24T17:05:41.713Z,118.73
2019-01-24T17:08:16.470Z,125.43
2019-01-24T17:10:42.171Z,111.93
2019-01-24T17:13:11.673Z,118.53
2019-01-24T17:15:42.180Z,117.63
2019-01-24T17:18:11.519Z,119.53
2019-01-24T17:20:40.660Z,128.83
2019-01-24T17:23:10.190Z,124.70
2019-01-24T17:25:40.013Z,116.87
2019-01-24T17:28:09.348Z,122.57
2019-01-24T17:30:38.640Z,130.97
2019-01-24T17:33:08.550Z,126.47
2019-01-24T17:35:37.704Z,113.83
2019-01-24T17:38:07.231Z,111.63
2019-01-24T17:40:37.306Z,114.70
2019-01-24T17:43:07.198Z,110.90
2019-01-24T17:45:36.497Z,124.87
2019-01-24T17:48:06.703Z,109.60
2019-01-24T17:50:35.963Z,118.77
2019-01-24T17:53:11.727Z,111.00
2019-01-24T17:55:43.862Z,108.80
2019-01-24T17:58:13.353Z,116.53
2019-01-24T18:00:47.492Z,116.67
2019-01-24T18:03:16.792Z,109.43
2019-01-24T18:05:45.964Z,120.93
2019-01-24T18:08:15.429Z,119.37
2019-01-24T18:10:44.656Z,121.33
2019-01-24T18:13:14.107Z,123.70
2019-01-24T18:15:45.029Z,128.30
2019-01-24T18:18:16.125Z,125.07
2019-01-24T18:20:46.018Z,131.70
2019-01-24T18:23:15.600Z,127.50
2019-01-24T18:25:44.848Z,135.93
2019-01-24T18:28:14.784Z,146.37
2019-01-24T18:30:44.061Z,139.70
2019-01-24T18:33:13.668Z,140.27
2019-01-24T18:35:43.575Z,139.33
2019-01-24T18:38:12.759Z,142.90
2019-01-24T18:40:42.127Z,144.70
2019-01-24T18:43:18.251Z,143.77
2019-01-24T18:45:48.642Z,146.30
2019-01-24T18:48:18.196Z,147.17
2019-01-24T18:50:47.640Z,136.33
2019-01-24T18:53:17.212Z,134.97
2019-01-24T18:55:46.411Z,135.47
2019-01-24T18:58:15.660Z,134.30
2019-01-24T19:00:46.563Z,141.87
2019-01-24T19:03:16.301Z,149.80
2019-01-24T19:05:46.115Z,157.53
2019-01-24T19:08:15.833Z,155.03
2019-01-24T19:10:45.022Z,150.33
2019-01-24T19:13:14.181Z,140.33
2019-01-24T19:15:45.207Z,138.37
2019-01-24T19:18:14.906Z,134.67
2019-01-24T19:20:44.116Z,135.03
2019-01-24T19:23:13.929Z,149.67
2019-01-24T19:25:43.580Z,144.03
2019-01-24T19:28:14.959Z,148.53
2019-01-24T19:30:44.594Z,152.53
2019-01-24T19:33:13.810Z,143.10
2019-01-24T19:35:43.148Z,143.97
2019-01-24T19:38:13.304Z,140.90
2019-01-24T19:40:42.588Z,142.07
2019-01-24T19:43:11.781Z,142.80
2019-01-24T19:45:41.384Z,141.33
2019-01-24T19:48:10.877Z,149.80
2019-01-24T19:50:40.176Z,134.50
2019-01-24T19:53:09.420Z,150.70
2019-01-24T19:55:38.604Z,201.17
2019-01-24T19:58:08.705Z,242.13
2019-01-24T20:00:37.951Z,205.10
2019-01-24T20:03:07.631Z,172.07
2019-01-24T20:05:36.877Z,169.20
2019-01-24T20:08:06.241Z,139.03
2019-01-24T20:10:35.456Z,143.90
2019-01-24T20:13:06.578Z,135.23
2019-01-24T20:15:37.518Z,137.57
2019-01-24T20:18:08.412Z,136.67
2019-01-24T20:20:38.139Z,139.30
2019-01-24T20:23:08.030Z,135.37
2019-01-24T20:25:37.458Z,128.40
2019-01-24T20:28:06.759Z,135.93
2019-01-24T20:30:36.116Z,137.93
2019-01-24T20:33:06.008Z,144.13
2019-01-24T20:35:41.300Z,149.90
2019-01-24T20:38:11.350Z,137.43
2019-01-24T20:40:40.953Z,137.53
2019-01-24T20:43:11.874Z,138.60
2019-01-24T20:45:41.512Z,132.07
2019-01-24T20:48:10.826Z,122.27
2019-01-24T20:50:40.180Z,129.20
2019-01-24T20:53:09.871Z,141.17
2019-01-24T20:55:39.559Z,131.07
2019-01-24T20:58:08.909Z,144.07
2019-01-24T21:00:38.286Z,132.53
2019-01-24T21:03:09.487Z,127.63
2019-01-24T21:05:38.857Z,138.70
2019-01-24T21:08:08.266Z,123.97
2019-01-24T21:10:37.870Z,116.63
2019-01-24T21:13:07.348Z,121.67
2019-01-24T21:15:36.988Z,127.33
2019-01-24T21:18:06.360Z,130.40
2019-01-24T21:20:35.623Z,139.07
2019-01-24T21:23:05.623Z,130.93
2019-01-24T21:25:35.118Z,123.13
2019-01-24T21:28:04.717Z,127.97
2019-01-24T21:30:35.500Z,129.37
2019-01-24T21:33:05.236Z,129.00
2019-01-24T21:35:34.857Z,124.73
2019-01-24T21:38:06.114Z,130.93
2019-01-24T21:40:35.535Z,138.87
2019-01-24T21:43:06.182Z,123.13
2019-01-24T21:45:35.715Z,124.53
2019-01-24T21:48:05.752Z,121.30
2019-01-24T21:50:35.162Z,117.33
2019-01-24T21:53:04.855Z,116.43
2019-01-24T21:55:34.556Z,109.47
2019-01-24T21:58:04.785Z,113.93
2019-01-24T22:00:34.489Z,112.17
2019-01-24T22:03:05.020Z,116.20
2019-01-24T22:05:34.406Z,121.20
2019-01-24T22:08:04.024Z,106.07
2019-01-24T22:10:33.645Z,108.43
2019-01-24T22:13:02.933Z,114.70
2019-01-24T22:15:32.538Z,113.90
2019-01-24T22:18:02.252Z,108.27
2019-01-24T22:20:32.183Z,106.10
2019-01-24T22:23:01.789Z,118.07
2019-01-24T22:25:33.305Z,104.70
2019-01-24T22:28:02.665Z,103.37
2019-01-24T22:30:37.598Z,99.67
2019-01-24T22:33:07.503Z,96.90
2019-01-24T22:35:36.806Z,102.07
2019-01-24T22:38:07.049Z,97.17
2019-01-24T22:40:36.444Z,92.20
2019-01-24T22:43:07.083Z,86.57
2019-01-24T22:45:36.485Z,88.33
2019-01-24T22:48:07.015Z,92.20
2019-01-24T22:50:36.327Z,89.80
2019-01-24T22:53:06.610Z,90.97
2019-01-24T22:55:35.913Z,87.47
2019-01-24T22:58:05.955Z,89.70
2019-01-24T23:00:55.816Z,89.60
2019-01-24T23:03:31.287Z,91.43
2019-01-24T23:06:00.927Z,91.10
2019-01-24T23:08:30.307Z,93.57
2019-01-24T23:11:19.091Z,90.77
2019-01-24T23:13:48.690Z,86.60
2019-01-24T23:16:17.978Z,89.50
2019-01-24T23:18:47.340Z,89.77
2019-01-24T23:21:16.999Z,96.70
2019-01-24T23:23:46.596Z,97.23
2019-01-24T23:26:15.932Z,99.40
2019-01-24T23:28:45.578Z,94.13
2019-01-24T23:31:14.939Z,87.10
2019-01-24T23:33:44.237Z,96.17
2019-01-24T23:36:13.486Z,98.63
2019-01-24T23:38:42.782Z,95.67
2019-01-24T23:41:12.130Z,91.07
2019-01-24T23:43:41.503Z,102.67
2019-01-24T23:46:11.216Z,99.00
2019-01-24T23:48:41.120Z,96.70
2019-01-24T23:51:10.502Z,91.97
2019-01-24T23:53:39.892Z,99.47
2019-01-24T23:56:09.202Z,99.53
2019-01-24T23:58:38.504Z,105.73
